Time;durP1;ratioP1;P1;durP2;ratioP2;P2;SDS_P1;SDS_P2;PMS_P1;PMS_P2;Temp;Humidity;BMP_temperature;BMP_pressure;BME280_temperature;BME280_humidity;BME280_pressure;Samples;Min_cycle;Max_cycle;Signal;HPM_P1;HPM_P2
2021/03/09 00:00:48;;;;;;;13.75;5.00;;;;;;;-5.63;73.74;99461.31;3512416;28;20109;-59
2021/03/09 00:02:29;;;;;;;10.52;4.47;;;;;;;-5.60;73.79;99461.56;3522862;28;20075;-58
2021/03/09 00:04:11;;;;;;;9.60;4.97;;;;;;;-5.57;73.77;99458.34;3522492;28;20092;-58
2021/03/09 00:05:53;;;;;;;9.75;4.28;;;;;;;-5.55;73.58;99461.88;3523031;28;20166;-58
2021/03/09 00:07:34;;;;;;;10.70;4.93;;;;;;;-5.51;73.41;99463.84;3519494;28;20449;-59
2021/03/09 00:09:16;;;;;;;8.70;3.80;;;;;;;-5.49;73.29;99462.34;3511463;28;20067;-59
2021/03/09 00:10:57;;;;;;;9.07;4.35;;;;;;;-5.48;73.37;99464.09;3518487;28;20043;-58
2021/03/09 00:12:39;;;;;;;11.43;5.30;;;;;;;-5.47;73.53;99455.75;3524049;28;20047;-59
2021/03/09 00:14:21;;;;;;;10.85;4.80;;;;;;;-5.45;73.66;99456.72;3521950;28;20058;-58
2021/03/09 00:16:03;;;;;;;12.45;4.82;;;;;;;-5.43;73.87;99460.25;3521345;28;20528;-58
2021/03/09 00:17:45;;;;;;;9.65;4.70;;;;;;;-5.42;73.71;99459.50;3523264;28;20531;-59
2021/03/09 00:19:26;;;;;;;27.63;3.05;;;;;;;-5.39;73.43;99457.16;3520558;28;20162;-58
2021/03/09 00:21:08;;;;;;;9.32;4.57;;;;;;;-5.37;73.52;99458.19;3525451;28;20054;-59
2021/03/09 00:22:50;;;;;;;9.50;4.38;;;;;;;-5.34;73.60;99457.50;3515905;28;20048;-59
2021/03/09 00:24:31;;;;;;;9.10;3.85;;;;;;;-5.30;73.53;99454.44;3512298;28;20048;-58
2021/03/09 00:26:13;;;;;;;8.60;4.00;;;;;;;-5.29;73.64;99454.53;3522273;28;20055;-59
2021/03/09 00:27:55;;;;;;;5.88;3.17;;;;;;;-5.26;73.49;99458.97;3521867;28;20552;-58
2021/03/09 00:29:37;;;;;;;6.10;2.97;;;;;;;-5.22;73.49;99460.06;3511236;28;20094;-58
2021/03/09 00:31:20;;;;;;;6.30;2.92;;;;;;;-5.20;73.66;99456.84;3516038;28;20448;-58
2021/03/09 00:33:02;;;;;;;5.75;3.20;;;;;;;-5.17;73.54;99463.78;3525179;28;20508;-59
2021/03/09 00:34:43;;;;;;;6.28;3.45;;;;;;;-5.16;73.63;99466.44;3521857;28;20043;-59
2021/03/09 00:36:25;;;;;;;9.23;4.03;;;;;;;-5.14;73.79;99464.91;3523558;28;20052;-58
2021/03/09 00:38:06;;;;;;;7.07;3.83;;;;;;;-5.12;73.74;99467.53;3521337;28;20047;-58
2021/03/09 00:39:48;;;;;;;8.48;3.60;;;;;;;-5.10;73.90;99466.00;3523024;28;20123;-59
2021/03/09 00:41:30;;;;;;;6.57;3.05;;;;;;;-5.08;73.68;99461.91;3524155;28;20058;-58
2021/03/09 00:43:12;;;;;;;6.50;3.00;;;;;;;-5.04;73.76;99455.44;3520465;28;20069;-59
2021/03/09 00:44:54;;;;;;;7.20;3.08;;;;;;;-5.00;73.81;99459.94;3525101;28;20518;-58
2021/03/09 00:46:35;;;;;;;5.22;3.08;;;;;;;-4.98;73.40;99461.81;3520171;28;20056;-59
2021/03/09 00:48:17;;;;;;;7.00;3.08;;;;;;;-4.93;73.53;99464.63;3524752;28;20135;-58
2021/03/09 00:49:59;;;;;;;5.05;2.65;;;;;;;-4.90;73.74;99457.25;3521311;28;20043;-59
2021/03/09 00:51:40;;;;;;;5.90;2.83;;;;;;;-4.86;73.40;99463.41;3522658;28;20051;-59
2021/03/09 00:53:22;;;;;;;5.88;2.63;;;;;;;-4.83;73.05;99463.63;3523991;28;20058;-58
2021/03/09 00:55:04;;;;;;;6.22;3.22;;;;;;;-4.82;73.29;99460.31;3521657;28;20051;-58
2021/03/09 00:56:46;;;;;;;7.30;3.20;;;;;;;-4.80;73.14;99463.88;3525124;28;20122;-59
2021/03/09 00:58:28;;;;;;;6.03;2.85;;;;;;;-4.78;73.24;99464.84;3516504;28;20048;-59
2021/03/09 01:00:12;;;;;;;5.30;2.55;;;;;;;-4.78;72.91;99463.19;3512094;28;20131;-58
2021/03/09 01:01:53;;;;;;;;;;;;;;;-4.76;73.10;99463.28;3521981;28;20055;-59
2021/03/09 01:03:35;;;;;;;4.68;2.55;;;;;;;-4.75;72.94;99462.53;3522619;28;20297;-59
2021/03/09 01:05:18;;;;;;;5.60;2.70;;;;;;;-4.75;72.90;99463.41;3523821;28;20080;-59
2021/03/09 01:07:00;;;;;;;7.40;3.00;;;;;;;-4.72;72.78;99458.56;3519333;28;20420;-58
2021/03/09 01:08:42;;;;;;;4.47;2.63;;;;;;;-4.72;72.89;99458.56;3511043;28;20048;-59
2021/03/09 01:10:24;;;;;;;9.15;3.08;;;;;;;-4.73;73.21;99459.31;3514437;28;20047;-59
2021/03/09 01:12:07;;;;;;;5.63;3.00;;;;;;;-4.71;73.28;99461.97;3512242;28;20051;-58
2021/03/09 01:13:49;;;;;;;4.50;2.63;;;;;;;-4.69;73.09;99464.63;3520528;28;20504;-58
2021/03/09 01:15:31;;;;;;;6.45;3.25;;;;;;;-4.68;73.14;99462.19;3521328;28;20056;-59
2021/03/09 01:17:29;;;;;;;7.85;3.15;;;;;;;-4.66;73.32;99462.31;3510957;28;20085;-59
2021/03/09 01:19:11;;;;;;;5.05;2.83;;;;;;;-4.65;73.52;99464.03;3517541;28;20071;-59
2021/03/09 01:20:53;;;;;;;8.43;3.60;;;;;;;-4.64;73.53;99459.09;3524468;28;20051;-59
2021/03/09 01:22:35;;;;;;;6.63;2.88;;;;;;;-4.62;73.64;99467.66;3513413;28;20044;-58
2021/03/09 01:24:17;;;;;;;6.80;3.05;;;;;;;-4.59;73.96;99472.09;3511862;28;20059;-59
2021/03/09 01:25:58;;;;;;;10.93;3.88;;;;;;;-4.58;73.96;99469.63;3522457;28;20104;-59
2021/03/09 01:27:40;;;;;;;10.38;4.18;;;;;;;-4.55;74.23;99471.50;3519912;28;20079;-59
2021/03/09 01:29:22;;;;;;;8.10;4.50;;;;;;;-4.53;74.54;99475.03;3524878;28;20081;-59
2021/03/09 01:31:04;;;;;;;8.90;3.83;;;;;;;-4.52;73.98;99474.28;3520974;28;20416;-59
2021/03/09 01:32:46;;;;;;;9.50;4.35;;;;;;;-4.49;73.67;99473.59;3523202;28;20120;-59
2021/03/09 01:34:28;;;;;;;9.45;4.70;;;;;;;-4.48;73.52;99481.28;3521784;28;20096;-59
2021/03/09 01:36:09;;;;;;;6.70;3.78;;;;;;;-4.47;73.68;99474.56;3522762;28;20044;-58
2021/03/09 01:37:51;;;;;;;8.20;4.00;;;;;;;-4.45;73.64;99485.66;3522393;28;20102;-59
2021/03/09 01:39:33;;;;;;;8.25;4.45;;;;;;;-4.45;73.45;99485.66;3518600;28;20420;-59
2021/03/09 01:41:15;;;;;;;9.70;4.10;;;;;;;-4.44;73.28;99484.91;3510832;28;20136;-59
2021/03/09 01:42:56;;;;;;;8.85;3.42;;;;;;;-4.43;73.37;99484.16;3513472;28;20071;-59
2021/03/09 01:44:38;;;;;;;7.93;3.75;;;;;;;-4.42;73.40;99480.84;3513254;28;20050;-59
2021/03/09 01:46:21;;;;;;;8.90;4.00;;;;;;;-4.40;73.36;99477.66;3523294;28;20054;-59
2021/03/09 01:48:05;;;;;;;9.40;4.38;;;;;;;-4.37;73.47;99482.03;3521113;28;20500;-59
2021/03/09 01:49:47;;;;;;;10.38;4.53;;;;;;;-4.36;73.74;99476.22;3525004;28;20047;-59
2021/03/09 01:51:29;;;;;;;8.27;3.42;;;;;;;-4.36;73.50;99472.03;3519814;28;20529;-59
2021/03/09 01:53:10;;;;;;;6.20;3.08;;;;;;;-4.34;73.37;99479.72;3522295;28;20071;-59
2021/03/09 01:54:52;;;;;;;12.48;4.60;;;;;;;-4.35;73.47;99470.34;3521944;28;20055;-59
2021/03/09 01:56:34;;;;;;;8.23;3.78;;;;;;;-4.31;72.84;99473.97;3521342;28;20052;-59
2021/03/09 01:58:19;;;;;;;8.30;3.60;;;;;;;-4.31;72.48;99473.97;3511168;28;20501;-59
2021/03/09 02:00:02;;;;;;;11.57;4.50;;;;;;;-4.31;72.69;99464.75;3521160;28;20043;-59
2021/03/09 02:01:45;;;;;;;7.38;4.10;;;;;;;-4.27;73.01;99481.03;3524844;28;20043;-59
2021/03/09 02:03:27;;;;;;;8.32;4.10;;;;;;;-4.27;73.12;99474.31;3521583;28;20043;-59
2021/03/09 02:05:10;;;;;;;8.30;3.53;;;;;;;-4.24;73.45;99476.16;3523595;28;20040;-59
2021/03/09 02:06:52;;;;;;;7.60;3.63;;;;;;;-4.23;73.41;99478.78;3511230;28;20052;-59
2021/03/09 02:08:34;;;;;;;9.13;3.92;;;;;;;-4.23;73.37;99478.78;3514286;28;20040;-59
2021/03/09 02:10:16;;;;;;;6.25;3.53;;;;;;;-4.21;73.87;99483.97;3524939;28;20105;-59
2021/03/09 02:12:06;;;;;;;7.95;3.80;;;;;;;-4.21;73.98;99481.44;3519347;28;20048;-59
2021/03/09 02:13:54;;;;;;;6.78;3.30;;;;;;;-4.22;73.72;99483.09;3521234;28;20054;-59
2021/03/09 02:15:44;;;;;;;7.93;3.55;;;;;;;-4.22;73.82;99489.81;3522110;28;20051;-59
2021/03/09 02:17:32;;;;;;;7.82;3.50;;;;;;;-4.23;73.59;99490.59;3519837;28;20210;-59
2021/03/09 02:19:43;;;;;;;9.65;4.50;;;;;;;-4.23;73.39;99488.94;3524638;28;20043;-59
2021/03/09 02:21:45;;;;;;;5.90;3.20;;;;;;;-4.22;72.97;99484.75;3467256;28;20398;-59
2021/03/09 02:24:02;;;;;;;7.97;3.92;;;;;;;-4.23;73.04;99494.00;3520193;28;20077;-58
2021/03/09 02:26:32;;;;;;;9.23;3.45;;;;;;;-4.22;72.46;99499.97;3511855;28;20048;-59
2021/03/09 02:28:25;;;;;;;15.00;4.28;;;;;;;-4.23;72.14;99493.13;3453563;28;20050;-59
2021/03/09 02:30:13;;;;;;;11.65;4.25;;;;;;;-4.25;72.11;99493.00;3480416;28;20047;-59
2021/03/09 02:31:57;;;;;;;6.25;3.47;;;;;;;-4.24;72.27;99499.84;3522691;28;20079;-58
2021/03/09 02:33:39;;;;;;;;;;;;;;;-4.24;72.33;99494.78;3511845;28;20059;-59
2021/03/09 02:35:25;;;;;;;8.00;3.78;;;;;;;-4.24;72.65;99502.38;3512207;28;20308;-59
2021/03/09 02:37:10;;;;;;;8.05;3.80;;;;;;;-4.24;72.45;99496.41;3510140;28;20425;-57
2021/03/09 02:38:55;;;;;;;8.52;4.07;;;;;;;-4.24;72.22;99502.38;3513233;28;20094;-59
2021/03/09 02:40:38;;;;;;;7.07;3.35;;;;;;;-4.23;72.15;99503.25;3511989;28;20055;-57
2021/03/09 02:42:23;;;;;;;9.15;4.03;;;;;;;-4.24;71.68;99504.00;3510898;28;20047;-59
2021/03/09 02:44:08;;;;;;;7.20;3.58;;;;;;;-4.23;71.74;99510.84;3513640;28;20052;-58
2021/03/09 02:45:52;;;;;;;8.05;3.72;;;;;;;-4.22;72.15;99508.41;3510114;28;20055;-59
2021/03/09 02:47:34;;;;;;;7.50;3.63;;;;;;;-4.22;72.31;99507.56;3517780;28;20050;-59
2021/03/09 02:49:18;;;;;;;6.95;3.00;;;;;;;-4.21;72.54;99510.16;3523670;28;20108;-59
2021/03/09 02:51:00;;;;;;;7.03;3.38;;;;;;;-4.20;71.82;99511.06;3520701;28;20059;-59
2021/03/09 02:52:45;;;;;;;6.95;3.55;;;;;;;-4.21;72.28;99510.16;3522759;28;20058;-59
2021/03/09 02:54:29;;;;;;;5.95;3.10;;;;;;;-4.20;72.32;99517.00;3521813;28;20130;-58
2021/03/09 02:56:12;;;;;;;8.02;3.80;;;;;;;-4.20;72.11;99517.00;3514802;28;20077;-59
2021/03/09 02:57:55;;;;;;;7.53;3.50;;;;;;;-4.19;72.23;99518.78;3524181;28;20051;-59
2021/03/09 02:59:37;;;;;;;6.38;3.30;;;;;;;-4.18;72.20;99525.59;3519174;28;20548;-59
2021/03/09 03:01:24;;;;;;;6.30;3.03;;;;;;;-4.17;72.72;99522.28;3523307;28;20047;-59
2021/03/09 03:03:08;;;;;;;6.78;3.03;;;;;;;-4.16;72.58;99520.63;3520418;28;20055;-59
2021/03/09 03:04:50;;;;;;;7.15;3.30;;;;;;;-4.15;72.42;99528.34;3521100;28;20043;-59
2021/03/09 03:06:33;;;;;;;7.80;3.40;;;;;;;-4.12;72.38;99526.78;3510004;28;20125;-59
2021/03/09 03:08:16;;;;;;;6.13;3.28;;;;;;;-4.13;72.54;99520.84;3516398;28;20450;-59
2021/03/09 03:09:58;;;;;;;7.15;3.17;;;;;;;-4.12;72.63;99527.66;3524047;28;20054;-59
2021/03/09 03:11:41;;;;;;;5.95;3.42;;;;;;;-4.12;72.61;99515.00;3520369;28;20522;-59
2021/03/09 03:13:24;;;;;;;5.45;3.08;;;;;;;-4.12;72.45;99521.72;3520669;28;20044;-59
2021/03/09 03:15:10;;;;;;;6.60;3.05;;;;;;;-4.12;71.94;99517.53;3511431;28;20416;-58
2021/03/09 03:16:53;;;;;;;4.03;2.28;;;;;;;-4.11;71.91;99523.50;3512676;28;20054;-58
2021/03/09 03:18:38;;;;;;;6.60;3.38;;;;;;;-4.11;71.99;99524.34;3524008;28;20116;-58
2021/03/09 03:20:22;;;;;;;7.18;2.83;;;;;;;-4.11;72.03;99526.88;3518878;28;20093;-59
2021/03/09 03:22:04;;;;;;;5.88;2.72;;;;;;;-4.09;72.42;99532.06;3521673;28;20051;-59
2021/03/09 03:23:46;;;;;;;6.00;2.60;;;;;;;-4.10;72.06;99532.81;3520951;28;20424;-59
2021/03/09 03:25:27;;;;;;;7.72;3.55;;;;;;;-4.11;72.36;99526.88;3521409;28;20128;-59
2021/03/09 03:27:09;;;;;;;6.43;2.88;;;;;;;-4.12;72.12;99525.13;3522415;28;20410;-59
2021/03/09 03:28:52;;;;;;;6.35;3.00;;;;;;;-4.12;72.23;99530.19;3520482;28;20048;-59
2021/03/09 03:30:34;;;;;;;4.65;2.50;;;;;;;-4.14;71.33;99532.59;3523744;28;20044;-59
2021/03/09 03:32:17;;;;;;;7.55;3.20;;;;;;;-4.15;71.23;99540.13;3518670;28;20047;-59
2021/03/09 03:33:59;;;;;;;4.07;2.30;;;;;;;-4.16;71.61;99538.34;3523201;28;20055;-59
2021/03/09 03:35:41;;;;;;;6.25;2.72;;;;;;;-4.15;72.45;99550.25;3520835;28;20058;-59
2021/03/09 03:37:22;;;;;;;4.88;2.40;;;;;;;-4.16;72.37;99548.47;3521403;28;20047;-59
2021/03/09 03:39:05;;;;;;;6.18;2.40;;;;;;;-4.16;72.32;99549.34;3522500;28;20055;-58
2021/03/09 03:40:47;;;;;;;5.60;2.50;;;;;;;-4.19;71.85;99540.66;3520418;28;20044;-59
2021/03/09 03:42:29;;;;;;;3.50;2.00;;;;;;;-4.16;72.01;99556.09;3523849;28;20280;-58
2021/03/09 03:44:10;;;;;;;5.22;2.80;;;;;;;-4.15;72.02;99552.78;3512712;28;20044;-57
2021/03/09 03:45:52;;;;;;;6.32;2.42;;;;;;;-4.16;72.00;99559.50;3511009;28;20094;-59
2021/03/09 03:47:35;;;;;;;6.07;2.50;;;;;;;-4.14;72.20;99555.41;3520754;28;20054;-59
2021/03/09 03:49:25;;;;;;;4.97;2.70;;;;;;;-4.11;72.35;99564.00;3519908;28;20588;-59
2021/03/09 03:51:11;;;;;;;8.30;2.58;;;;;;;-4.12;71.93;99565.66;3513804;28;20055;-58
2021/03/09 03:53:00;;;;;;;4.43;2.47;;;;;;;-4.10;71.77;99574.25;3522627;28;20453;-59
2021/03/09 03:54:50;;;;;;;4.10;2.47;;;;;;;-4.12;71.55;99570.72;3525451;28;20067;-59
2021/03/09 03:56:39;;;;;;;6.03;3.05;;;;;;;-4.10;71.93;99569.19;3522708;28;20079;-59
2021/03/09 03:58:27;;;;;;;4.50;2.80;;;;;;;-4.10;71.89;99575.88;3521207;28;20102;-59
2021/03/09 04:00:12;;;;;;;6.03;3.15;;;;;;;-4.12;71.99;99577.44;3525938;28;20056;-59
2021/03/09 04:01:55;;;;;;;8.60;4.50;;;;;;;-4.16;71.91;99579.75;3522315;28;20051;-59
2021/03/09 04:03:39;;;;;;;5.43;2.80;;;;;;;-4.16;71.74;99581.41;3525491;28;20048;-59
2021/03/09 04:05:22;;;;;;;6.07;3.28;;;;;;;-4.18;72.03;99575.38;3522858;28;20497;-59
2021/03/09 04:07:06;;;;;;;6.00;2.75;;;;;;;-4.19;72.11;99571.97;3523727;28;20051;-59
2021/03/09 04:08:48;;;;;;;7.00;3.20;;;;;;;-4.18;71.98;99573.69;3511704;28;20048;-59
2021/03/09 04:10:30;;;;;;;6.20;3.05;;;;;;;-4.17;71.85;99575.47;3516745;28;20050;-59
2021/03/09 04:12:12;;;;;;;5.45;2.80;;;;;;;-4.16;72.13;99574.69;3525745;28;20063;-59
2021/03/09 04:13:54;;;;;;;10.63;3.47;;;;;;;-4.15;71.81;99579.00;3522221;28;20051;-58
2021/03/09 04:15:37;;;;;;;6.40;2.90;;;;;;;-4.16;71.32;99584.81;3523658;28;20056;-59
2021/03/09 04:17:22;;;;;;;6.37;2.90;;;;;;;-4.16;71.59;99582.28;3524367;28;20054;-59
2021/03/09 04:19:05;;;;;;;5.20;2.75;;;;;;;-4.17;71.63;99582.16;3520320;28;20366;-59
2021/03/09 04:20:48;;;;;;;5.70;3.08;;;;;;;-4.17;71.83;99588.13;3511889;28;20072;-59
2021/03/09 04:22:32;;;;;;;6.90;3.30;;;;;;;-4.16;72.00;99583.94;3521271;28;20079;-57
2021/03/09 04:24:14;;;;;;;5.43;2.78;;;;;;;-4.16;71.27;99594.06;3524726;28;20287;-57
2021/03/09 04:25:57;;;;;;;6.28;3.00;;;;;;;-4.18;71.41;99588.91;3522883;28;20542;-57
2021/03/09 04:27:40;;;;;;;4.22;2.53;;;;;;;-4.16;71.49;99594.94;3522996;28;20364;-57
2021/03/09 04:29:22;;;;;;;3.90;2.28;;;;;;;-4.17;71.38;99594.84;3525253;28;20052;-57
2021/03/09 04:31:04;;;;;;;3.95;2.45;;;;;;;-4.17;70.87;99592.31;3520660;28;20054;-57
2021/03/09 04:32:46;;;;;;;4.60;3.08;;;;;;;-4.18;71.66;99590.56;3525639;28;20051;-57
2021/03/09 04:34:29;;;;;;;5.07;2.90;;;;;;;-4.19;71.51;99592.22;3515291;28;20170;-57
2021/03/09 04:36:11;;;;;;;4.95;2.88;;;;;;;-4.18;71.13;99596.50;3513955;28;20127;-59
2021/03/09 04:37:53;;;;;;;8.27;4.38;;;;;;;-4.20;70.93;99592.97;3522942;28;20055;-59
2021/03/09 04:39:36;;;;;;;5.00;2.80;;;;;;;-4.20;71.32;99589.56;3521955;28;20044;-59
2021/03/09 04:41:17;;;;;;;3.75;2.55;;;;;;;-4.20;71.64;99592.97;3525392;28;20504;-59
2021/03/09 04:42:59;;;;;;;6.22;3.33;;;;;;;-4.20;71.27;99598.03;3520713;28;20047;-59
2021/03/09 04:44:41;;;;;;;7.82;3.42;;;;;;;-4.20;70.81;99597.19;3525060;28;20058;-59
2021/03/09 04:46:23;;;;;;;3.70;2.67;;;;;;;-4.21;70.93;99603.88;3522424;28;20120;-58
2021/03/09 04:48:06;;;;;;;6.65;3.58;;;;;;;-4.19;71.01;99598.91;3522711;28;20075;-59
2021/03/09 04:49:56;;;;;;;6.53;3.20;;;;;;;-4.21;69.98;99605.53;3523189;28;20451;-58
2021/03/09 04:51:38;;;;;;;7.45;2.78;;;;;;;-4.23;70.33;99599.47;3520412;28;20048;-59
2021/03/09 04:53:23;;;;;;;4.53;2.50;;;;;;;-4.21;70.89;99610.59;3525366;28;20086;-59
2021/03/09 04:55:06;;;;;;;8.50;3.22;;;;;;;-4.21;71.30;99606.41;3521956;28;20047;-59
2021/03/09 04:56:47;;;;;;;6.47;3.43;;;;;;;-4.22;70.93;99607.19;3524871;28;20051;-58
2021/03/09 04:58:29;;;;;;;9.45;3.42;;;;;;;-4.21;70.86;99610.59;3522698;28;20280;-59
2021/03/09 05:00:12;;;;;;;7.57;2.85;;;;;;;-4.20;70.63;99610.72;3523086;28;20105;-59
2021/03/09 05:01:55;;;;;;;6.97;3.60;;;;;;;-4.19;70.72;99611.56;3510940;28;20055;-59
2021/03/09 05:03:37;;;;;;;6.88;3.38;;;;;;;-4.19;70.85;99614.09;3517510;28;20063;-58
2021/03/09 05:05:21;;;;;;;4.57;2.45;;;;;;;-4.18;71.24;99614.22;3525162;28;20055;-59
2021/03/09 05:07:03;;;;;;;6.25;3.35;;;;;;;-4.16;70.84;99616.88;3521445;28;20050;-59
2021/03/09 05:08:45;;;;;;;5.22;3.05;;;;;;;-4.16;70.53;99619.41;3523032;28;20048;-59
2021/03/09 05:10:26;;;;;;;7.43;3.45;;;;;;;-4.15;70.32;99621.19;3522564;28;20548;-59
2021/03/09 05:12:08;;;;;;;7.35;3.15;;;;;;;-4.14;70.75;99617.84;3522056;28;20047;-59
2021/03/09 05:13:50;;;;;;;6.50;3.63;;;;;;;-4.12;70.69;99623.03;3523235;28;20055;-59
2021/03/09 05:15:32;;;;;;;7.05;3.90;;;;;;;-4.11;70.77;99625.69;3521786;28;20052;-59
2021/03/09 05:17:13;;;;;;;7.65;3.28;;;;;;;-4.09;70.53;99631.72;3525262;28;20074;-59
2021/03/09 05:18:55;;;;;;;6.20;3.42;;;;;;;-4.08;70.48;99638.56;3521380;28;20463;-57
2021/03/09 05:20:38;;;;;;;5.88;4.47;;;;;;;-4.06;70.11;99641.22;3522764;28;20058;-59
2021/03/09 05:22:20;;;;;;;6.72;3.95;;;;;;;-4.08;69.96;99640.19;3522207;28;20500;-58
2021/03/09 05:24:02;;;;;;;7.00;4.07;;;;;;;-4.10;69.89;99647.72;3521860;28;20492;-59
2021/03/09 05:25:43;;;;;;;4.55;3.08;;;;;;;-4.09;70.19;99646.91;3524801;28;20401;-58
2021/03/09 05:27:25;;;;;;;6.97;3.25;;;;;;;-4.11;69.41;99651.00;3521187;28;20058;-59
2021/03/09 05:29:07;;;;;;;7.05;3.08;;;;;;;-4.12;69.20;99650.91;3524864;28;20108;-59
2021/03/09 05:30:48;;;;;;;6.47;2.92;;;;;;;-4.14;69.71;99650.78;3521267;28;20447;-59
2021/03/09 05:32:30;;;;;;;9.65;3.00;;;;;;;-4.11;69.54;99657.72;3524139;28;20071;-59
2021/03/09 05:34:12;;;;;;;5.18;3.45;;;;;;;-4.11;69.54;99663.66;3511870;28;20524;-59
2021/03/09 05:35:54;;;;;;;5.78;3.25;;;;;;;-4.10;69.38;99659.47;3512490;28;20063;-59
2021/03/09 05:37:36;;;;;;;4.63;2.55;;;;;;;-4.10;69.00;99662.91;3511101;28;20048;-59
2021/03/09 05:39:17;;;;;;;4.68;2.67;;;;;;;-4.08;69.04;99665.53;3517247;28;20519;-59
2021/03/09 05:40:59;;;;;;;5.57;2.85;;;;;;;-4.09;69.18;99664.66;3524823;28;20048;-58
2021/03/09 05:42:41;;;;;;;4.32;2.53;;;;;;;-4.08;68.90;99663.91;3519905;28;20047;-59
2021/03/09 05:44:23;;;;;;;4.22;2.67;;;;;;;-4.05;69.36;99674.22;3521902;28;20427;-59
2021/03/09 05:46:05;;;;;;;5.05;2.97;;;;;;;-4.04;68.95;99670.94;3511950;28;20083;-59
2021/03/09 05:47:47;;;;;;;4.20;2.70;;;;;;;-4.03;68.99;99675.25;3512834;28;20068;-59
2021/03/09 05:49:29;;;;;;;4.63;3.00;;;;;;;-4.02;69.36;99671.91;3525000;28;20058;-59
2021/03/09 05:51:12;;;;;;;5.13;3.13;;;;;;;-3.98;69.31;99683.16;3521131;28;20104;-58
2021/03/09 05:52:53;;;;;;;9.07;3.42;;;;;;;-3.96;69.69;99677.44;3524842;28;20055;-59
2021/03/09 05:54:35;;;;;;;7.22;3.53;;;;;;;-3.91;69.84;99675.22;3521690;28;20050;-59
2021/03/09 05:56:17;;;;;;;6.95;3.45;;;;;;;-3.86;69.79;99681.47;3521859;28;20055;-59
2021/03/09 05:57:59;;;;;;;6.95;3.33;;;;;;;-3.84;68.98;99679.94;3513920;28;20237;-59
2021/03/09 05:59:42;;;;;;;6.47;3.20;;;;;;;-3.81;69.09;99682.69;3520355;28;20072;-59
2021/03/09 06:01:24;;;;;;;6.43;3.70;;;;;;;-3.77;69.46;99679.59;3510542;28;20078;-59
2021/03/09 06:03:06;;;;;;;7.32;3.70;;;;;;;-3.71;69.66;99691.84;3516594;28;20043;-58
2021/03/09 06:04:47;;;;;;;8.23;4.10;;;;;;;-3.67;69.43;99692.94;3524105;28;20058;-59
2021/03/09 06:06:32;;;;;;;8.38;3.65;;;;;;;-3.66;68.71;99699.75;3520238;28;20466;-58
2021/03/09 06:08:13;;;;;;;5.53;2.95;;;;;;;-3.65;68.82;99704.94;3523156;28;20051;-59
2021/03/09 06:09:55;;;;;;;7.35;3.17;;;;;;;-3.63;69.14;99705.91;3522793;28;20047;-48
2021/03/09 06:11:36;;;;;;;8.20;3.72;;;;;;;-3.61;68.79;99704.34;3520582;28;20051;-47
2021/03/09 06:13:33;;;;;;;7.00;3.97;;;;;;;-3.57;68.94;99713.97;3510956;28;20771;-48
2021/03/09 06:15:15;;;;;;;8.20;3.42;;;;;;;-3.53;69.59;99719.25;3520869;28;20051;-47
2021/03/09 06:16:56;;;;;;;6.25;3.42;;;;;;;-3.49;69.30;99717.03;3522217;28;20079;-48
2021/03/09 06:18:38;;;;;;;6.40;3.70;;;;;;;-3.45;69.02;99720.66;3521149;28;20318;-47
2021/03/09 06:20:23;;;;;;;6.10;3.88;;;;;;;-3.42;69.05;99718.34;3520650;28;20075;-47
2021/03/09 06:22:05;;;;;;;8.35;4.18;;;;;;;-3.40;69.24;99712.56;3524062;28;20068;-47
2021/03/09 06:23:47;;;;;;;9.27;4.30;;;;;;;-3.37;69.14;99724.59;3520851;28;20058;-47
2021/03/09 06:25:32;;;;;;;7.53;3.97;;;;;;;-3.32;69.77;99722.38;3524637;28;20051;-47
2021/03/09 06:27:24;;;;;;;8.00;4.13;;;;;;;-3.27;69.84;99728.66;3519924;28;20084;-47
2021/03/09 06:29:09;;;;;;;8.13;3.53;;;;;;;-3.23;69.78;99730.63;3522238;28;20082;-47
2021/03/09 06:30:52;;;;;;;7.50;4.10;;;;;;;-3.23;69.98;99726.44;3523217;28;20068;-48
2021/03/09 06:32:40;;;;;;;7.68;3.72;;;;;;;-3.19;70.34;99732.59;3518951;28;20047;-47
2021/03/09 06:34:26;;;;;;;7.68;4.72;;;;;;;-3.16;70.55;99737.00;3510398;28;20059;-47
2021/03/09 06:36:11;;;;;;;9.02;4.03;;;;;;;-3.15;70.29;99734.56;3521189;28;20043;-48
2021/03/09 06:37:53;;;;;;;7.18;4.55;;;;;;;-3.13;70.55;99727.06;3521931;28;20047;-48
2021/03/09 06:39:53;;;;;;;8.30;4.22;;;;;;;-3.08;70.63;99736.75;3522186;28;20062;-45
2021/03/09 06:41:35;;;;;;;7.72;4.53;;;;;;;-3.05;70.04;99739.50;3517755;28;20047;-47
2021/03/09 06:43:18;;;;;;;12.10;5.20;;;;;;;-3.05;69.67;99739.50;3510101;28;20531;-48
2021/03/09 06:45:01;;;;;;;8.23;4.50;;;;;;;-3.01;69.57;99748.19;3518899;28;20543;-47
2021/03/09 06:46:45;;;;;;;8.35;4.18;;;;;;;-3.02;69.12;99739.72;3523569;28;20055;-49
2021/03/09 06:48:27;;;;;;;6.72;4.10;;;;;;;-3.01;69.81;99745.66;3511669;28;20131;-47
2021/03/09 06:50:12;;;;;;;9.95;4.60;;;;;;;-2.98;69.59;99748.41;3512429;28;20048;-49
2021/03/09 06:51:53;;;;;;;8.23;4.80;;;;;;;-2.95;69.72;99751.19;3523834;28;20051;-49
2021/03/09 06:53:36;;;;;;;7.68;4.47;;;;;;;-2.91;69.66;99753.13;3516550;28;20054;-49
2021/03/09 06:55:27;;;;;;;9.52;4.13;;;;;;;-2.91;68.55;99758.22;3510337;28;20044;-49
2021/03/09 06:57:09;;;;;;;7.05;3.78;;;;;;;-2.96;68.12;99759.56;3521037;28;20059;-45
2021/03/09 06:58:51;;;;;;;8.75;4.13;;;;;;;-3.06;69.17;99765.66;3521827;28;20039;-46
2021/03/09 07:00:33;;;;;;;7.88;4.20;;;;;;;-3.09;69.75;99765.44;3522830;28;20478;-46
2021/03/09 07:02:16;;;;;;;7.43;4.35;;;;;;;-3.15;69.85;99770.09;3520430;28;20040;-46
2021/03/09 07:03:57;;;;;;;6.63;3.75;;;;;;;-3.20;69.89;99771.41;3524030;28;20442;-46
2021/03/09 07:05:57;;;;;;;9.55;4.90;;;;;;;-3.23;70.38;99781.38;3520623;28;20420;-46
2021/03/09 07:07:40;;;;;;;6.95;4.05;;;;;;;-3.25;71.32;99783.81;3520527;28;20047;-47
2021/03/09 07:09:22;;;;;;;8.10;4.03;;;;;;;-3.25;71.39;99783.81;3522581;28;20056;-46
2021/03/09 07:11:04;;;;;;;7.18;4.20;;;;;;;-3.26;71.46;99781.16;3519450;28;20527;-49
2021/03/09 07:12:48;;;;;;;9.60;4.97;;;;;;;-3.25;72.37;99780.38;3524141;28;20124;-46
2021/03/09 07:14:33;;;;;;;8.40;4.05;;;;;;;-3.23;72.35;99782.25;3518809;28;20051;-46
2021/03/09 07:16:14;;;;;;;6.57;4.30;;;;;;;-3.15;72.54;99780.22;3521885;28;20043;-48
2021/03/09 07:17:56;;;;;;;7.50;3.85;;;;;;;-3.10;70.88;99778.03;3521035;28;20156;-45
2021/03/09 07:19:41;;;;;;;8.77;4.18;;;;;;;-3.06;71.69;99775.81;3520445;28;20064;-48
2021/03/09 07:21:27;;;;;;;9.50;4.05;;;;;;;-3.02;70.61;99780.31;3509848;28;20056;-47
2021/03/09 07:23:10;;;;;;;6.88;3.88;;;;;;;-2.93;71.48;99781.75;3515423;28;20051;-48
2021/03/09 07:25:01;;;;;;;6.45;4.20;;;;;;;-2.83;71.91;99779.03;3524202;28;20050;-47
2021/03/09 07:26:42;;;;;;;7.03;3.88;;;;;;;-2.73;71.60;99786.50;3523377;28;20048;-49
2021/03/09 07:28:34;;;;;;;7.93;4.20;;;;;;;-2.65;70.52;99779.41;3524339;28;20071;-47
2021/03/09 07:30:17;;;;;;;8.63;4.93;;;;;;;-2.57;70.85;99783.34;3512176;28;20044;-47
2021/03/09 07:32:01;;;;;;;12.13;5.82;;;;;;;-2.47;71.35;99777.22;3517142;28;21094;-50
2021/03/09 07:33:43;;;;;;;15.70;7.20;;;;;;;-2.39;72.12;99773.53;3526528;28;20440;-47
2021/03/09 07:35:27;;;;;;;14.52;7.25;;;;;;;-2.28;71.83;99771.72;3521488;28;20046;-47
2021/03/09 07:37:09;;;;;;;12.77;6.45;;;;;;;-2.18;71.17;99779.13;3523715;28;20048;-48
2021/03/09 07:38:51;;;;;;;13.32;5.85;;;;;;;-2.14;70.33;99782.75;3523848;28;20059;-48
2021/03/09 07:40:35;;;;;;;11.27;6.07;;;;;;;-2.06;70.38;99774.84;3523025;28;20040;-48
2021/03/09 07:42:18;;;;;;;10.23;6.05;;;;;;;-2.00;69.50;99784.56;3511911;28;20111;-47
2021/03/09 07:43:59;;;;;;;13.43;6.45;;;;;;;-1.93;68.78;99770.56;3519691;28;20138;-49
2021/03/09 07:45:41;;;;;;;11.23;6.10;;;;;;;-1.87;68.41;99769.31;3526101;28;20047;-48
2021/03/09 07:47:23;;;;;;;9.73;5.40;;;;;;;-1.80;68.52;99765.50;3523236;28;20071;-47
2021/03/09 07:49:04;;;;;;;12.90;6.03;;;;;;;-1.71;68.67;99766.09;3525130;28;20130;-48
2021/03/09 07:50:47;;;;;;;11.88;6.03;;;;;;;-1.59;67.88;99776.16;3524073;28;20044;-48
2021/03/09 07:52:28;;;;;;;12.77;6.07;;;;;;;-1.55;67.17;99767.94;3522288;28;20068;-47
2021/03/09 07:54:10;;;;;;;10.00;5.82;;;;;;;-1.49;65.65;99765.78;3512287;28;20040;-48
2021/03/09 07:56:12;;;;;;;10.82;5.45;;;;;;;-1.41;66.56;99768.81;3515641;28;20416;-47
2021/03/09 07:58:15;;;;;;;10.32;5.80;;;;;;;-1.32;66.17;99773.59;3512590;28;20036;-47
2021/03/09 07:59:58;;;;;;;11.68;5.68;;;;;;;-1.23;65.97;99775.84;3512201;28;20572;-47
2021/03/09 08:01:46;;;;;;;13.18;5.80;;;;;;;-1.24;63.93;99779.16;3514241;28;20048;-47
2021/03/09 08:03:30;;;;;;;6.38;4.05;;;;;;;-1.40;58.85;99777.31;3511820;28;20131;-48
2021/03/09 08:05:14;;;;;;;7.25;4.40;;;;;;;-1.58;60.20;99775.38;3522203;28;20397;-47
2021/03/09 08:06:54;;;;;;;7.55;3.53;;;;;;;-1.63;58.88;99771.69;3523070;28;20075;-47
2021/03/09 08:08:43;;;;;;;4.30;2.80;;;;;;;-1.63;58.25;99770.78;3524276;28;20082;-49